createdAt,value
2019-05-06T00:01:58.435Z,100337.26
2019-05-06T00:04:29.393Z,100333.84
2019-05-06T00:07:00.105Z,100337.29
2019-05-06T00:09:30.957Z,100335.55
2019-05-06T00:12:04.322Z,100331.23
2019-05-06T00:14:34.821Z,100328.66
2019-05-06T00:17:05.847Z,100328.23
2019-05-06T00:19:37.081Z,100329.10
2019-05-06T00:22:07.604Z,100329.52
2019-05-06T00:24:45.053Z,100334.70
2019-05-06T00:27:20.300Z,100335.55
2019-05-06T00:29:51.003Z,100332.12
2019-05-06T00:32:21.419Z,100330.37
2019-05-06T00:34:51.871Z,100335.13
2019-05-06T00:37:24.087Z,100338.14
2019-05-06T00:40:04.670Z,100334.70
2019-05-06T00:42:37.648Z,100338.57
2019-05-06T00:45:09.381Z,100344.59
2019-05-06T00:47:40.348Z,100342.45
2019-05-06T00:50:11.098Z,100350.20
2019-05-06T00:52:41.905Z,100348.04
2019-05-06T00:55:13.694Z,100341.58
2019-05-06T00:57:44.609Z,100351.05
2019-05-06T01:00:27.018Z,100355.37
2019-05-06T01:02:57.465Z,100351.06
2019-05-06T01:05:28.193Z,100353.62
2019-05-06T01:07:58.773Z,100354.47
2019-05-06T01:10:31.897Z,100355.78
2019-05-06T01:13:08.517Z,100345.02
2019-05-06T01:15:39.329Z,100350.61
2019-05-06T01:18:10.016Z,100353.61
2019-05-06T01:20:41.099Z,100350.13
2019-05-06T01:23:11.879Z,100354.00
2019-05-06T01:25:43.800Z,100354.81
2019-05-06T01:28:14.920Z,100358.69
2019-05-06T01:30:45.717Z,100361.26
2019-05-06T01:33:17.240Z,100356.94
2019-05-06T01:35:48.505Z,100357.81
2019-05-06T01:38:40.751Z,100362.09
2019-05-06T01:41:33.864Z,100361.23
2019-05-06T01:44:04.778Z,100367.20
2019-05-06T01:46:35.570Z,100364.16
2019-05-06T01:49:06.426Z,100361.95
2019-05-06T01:51:37.690Z,100371.01
2019-05-06T01:54:09.199Z,100366.25
2019-05-06T01:56:39.977Z,100373.91
2019-05-06T01:59:10.978Z,100373.45
2019-05-06T02:01:54.797Z,100375.98
2019-05-06T02:04:14.018Z,100372.95
2019-05-06T02:06:44.598Z,100375.45
2019-05-06T02:09:17.472Z,100377.55
2019-05-06T02:11:48.703Z,100383.06
2019-05-06T02:14:19.208Z,100381.26
2019-05-06T02:16:49.699Z,100378.41
2019-05-06T02:19:25.766Z,100387.78
2019-05-06T02:22:18.225Z,100380.81
2019-05-06T02:25:01.481Z,100390.73
2019-05-06T02:27:33.983Z,100388.44
2019-05-06T02:30:25.009Z,100387.89
2019-05-06T02:33:01.083Z,100390.26
2019-05-06T02:35:38.665Z,100396.39
2019-05-06T02:38:32.691Z,100392.89
2019-05-06T02:40:55.903Z,100393.64
2019-05-06T02:43:26.699Z,100397.10
2019-05-06T02:45:57.104Z,100392.11
2019-05-06T02:48:44.799Z,100390.48
2019-05-06T02:51:17.820Z,100383.09
2019-05-06T02:53:53.557Z,100384.43
2019-05-06T02:56:24.072Z,100384.43
2019-05-06T02:58:54.959Z,100384.41
2019-05-06T03:01:25.981Z,100385.66
2019-05-06T03:03:56.925Z,100386.50
2019-05-06T03:06:27.932Z,100384.95
2019-05-06T03:09:03.203Z,100387.03
2019-05-06T03:11:34.611Z,100389.13
2019-05-06T03:14:05.497Z,100399.41
2019-05-06T03:16:36.168Z,100393.05
2019-05-06T03:19:07.390Z,100395.84
2019-05-06T03:21:55.822Z,100397.49
2019-05-06T03:24:46.934Z,100392.70
2019-05-06T03:27:17.476Z,100389.75
2019-05-06T03:29:48.593Z,100395.59
2019-05-06T03:32:24.775Z,100393.83
2019-05-06T03:35:07.671Z,100395.55
2019-05-06T03:37:24.152Z,100396.94
2019-05-06T03:39:54.657Z,100393.41
2019-05-06T03:42:25.663Z,100399.11
2019-05-06T03:45:03.929Z,100396.30
2019-05-06T03:47:57.668Z,100405.97
2019-05-06T03:50:28.718Z,100402.64
2019-05-06T03:52:59.823Z,100403.45
2019-05-06T03:55:33.967Z,100403.91
2019-05-06T03:58:04.519Z,100406.80
2019-05-06T04:00:39.180Z,100405.52
2019-05-06T04:03:09.336Z,100407.23
2019-05-06T04:05:43.561Z,100409.58
2019-05-06T04:08:13.848Z,100407.41
2019-05-06T04:10:45.201Z,100409.83
2019-05-06T04:13:16.058Z,100417.07
2019-05-06T04:16:03.570Z,100415.89
2019-05-06T04:18:34.643Z,100415.81
2019-05-06T04:21:16.760Z,100423.96
2019-05-06T04:24:05.689Z,100416.61
2019-05-06T04:26:49.529Z,100417.60
2019-05-06T04:29:20.383Z,100421.52
2019-05-06T04:31:54.047Z,100419.77
2019-05-06T04:34:24.103Z,100426.71
2019-05-06T04:36:55.002Z,100432.34
2019-05-06T04:39:26.240Z,100434.94
2019-05-06T04:41:59.708Z,100430.80
2019-05-06T04:44:33.097Z,100433.96
2019-05-06T04:47:05.523Z,100442.94
2019-05-06T04:49:36.654Z,100433.30
2019-05-06T04:52:07.935Z,100430.34
2019-05-06T04:54:38.938Z,100428.70
2019-05-06T04:57:09.526Z,100435.16
2019-05-06T04:59:43.389Z,100441.64
2019-05-06T05:02:13.356Z,100441.62
2019-05-06T05:04:44.225Z,100442.95
2019-05-06T05:07:15.373Z,100442.91
2019-05-06T05:09:46.446Z,100446.80
2019-05-06T05:12:23.208Z,100448.11
2019-05-06T05:15:05.584Z,100449.36
2019-05-06T05:17:42.139Z,100445.45
2019-05-06T05:20:12.792Z,100442.34
2019-05-06T05:22:43.279Z,100452.31
2019-05-06T05:25:14.279Z,100454.91
2019-05-06T05:27:45.573Z,100451.71
2019-05-06T05:30:16.473Z,100456.16
2019-05-06T05:32:47.359Z,100464.06
2019-05-06T05:35:17.908Z,100467.70
2019-05-06T05:37:49.458Z,100458.97
2019-05-06T05:40:20.046Z,100459.09
2019-05-06T05:43:07.935Z,100465.37
2019-05-06T05:45:38.449Z,100476.33
2019-05-06T05:48:17.663Z,100463.78
2019-05-06T05:50:48.097Z,100461.69
2019-05-06T05:53:19.121Z,100461.18
2019-05-06T05:55:50.008Z,100475.10
2019-05-06T05:58:24.570Z,100468.34
2019-05-06T06:00:53.816Z,100468.22
2019-05-06T06:03:24.394Z,100468.47
2019-05-06T06:05:55.367Z,100476.86
2019-05-06T06:08:27.833Z,100473.95
2019-05-06T06:11:04.309Z,100481.32
2019-05-06T06:13:34.974Z,100478.67
2019-05-06T06:16:36.748Z,100490.07
2019-05-06T06:19:24.864Z,100486.70
2019-05-06T06:22:00.282Z,100485.02
2019-05-06T06:24:37.585Z,100487.15
2019-05-06T06:27:08.268Z,100486.36
2019-05-06T06:29:38.835Z,100495.33
2019-05-06T06:32:23.023Z,100498.37
2019-05-06T06:35:19.329Z,100488.50
2019-05-06T06:38:12.306Z,100492.62
2019-05-06T06:40:43.461Z,100491.00
2019-05-06T06:43:18.489Z,100478.97
2019-05-06T06:45:49.002Z,100492.58
2019-05-06T06:48:20.106Z,100490.64
2019-05-06T06:50:52.228Z,100490.48
2019-05-06T06:53:23.740Z,100489.78
2019-05-06T06:56:13.404Z,100481.20
2019-05-06T06:59:02.539Z,100482.96
2019-05-06T07:01:39.433Z,100481.60
2019-05-06T07:04:14.900Z,100474.16
2019-05-06T07:06:49.178Z,100489.95
2019-05-06T07:09:19.830Z,100487.78
2019-05-06T07:11:52.496Z,100491.88
2019-05-06T07:14:23.076Z,100476.98
2019-05-06T07:16:53.876Z,100492.11
2019-05-06T07:19:32.761Z,100487.31
2019-05-06T07:22:07.007Z,100487.20
2019-05-06T07:24:37.780Z,100484.58
2019-05-06T07:27:18.518Z,100485.22
2019-05-06T07:29:49.456Z,100479.81
2019-05-06T07:32:20.228Z,100479.61
2019-05-06T07:34:53.040Z,100484.31
2019-05-06T07:37:23.365Z,100486.14
2019-05-06T07:39:54.947Z,100473.78
2019-05-06T07:42:32.253Z,100483.34
2019-05-06T07:45:18.114Z,100478.09
2019-05-06T07:48:09.804Z,100481.78
2019-05-06T07:50:42.527Z,100479.62
2019-05-06T07:53:14.071Z,100485.34
2019-05-06T07:55:44.910Z,100483.64
2019-05-06T07:58:16.128Z,100479.07
2019-05-06T08:00:47.459Z,100482.16
2019-05-06T08:03:18.032Z,100480.72
2019-05-06T08:05:58.006Z,100486.41
2019-05-06T08:08:23.029Z,100485.05
2019-05-06T08:10:53.675Z,100484.60
2019-05-06T08:13:24.908Z,100490.34
2019-05-06T08:15:55.492Z,100488.67
2019-05-06T08:18:26.546Z,100489.89
2019-05-06T08:20:59.019Z,100483.95
2019-05-06T08:23:38.870Z,100487.86
2019-05-06T08:26:13.037Z,100484.05
2019-05-06T08:28:44.445Z,100483.71
2019-05-06T08:31:16.782Z,100480.05
2019-05-06T08:33:48.066Z,100495.98
2019-05-06T08:36:25.590Z,100489.78
2019-05-06T08:38:56.887Z,100492.39
2019-05-06T08:41:27.867Z,100485.63
2019-05-06T08:43:58.877Z,100486.88
2019-05-06T08:46:32.448Z,100481.47
2019-05-06T08:49:03.050Z,100487.45
2019-05-06T08:51:42.537Z,100480.00
2019-05-06T08:54:19.523Z,100478.65
2019-05-06T08:56:52.268Z,100474.08
2019-05-06T08:59:24.008Z,100478.37
2019-05-06T09:01:56.243Z,100475.29
2019-05-06T09:04:27.319Z,100474.41
2019-05-06T09:06:58.137Z,100475.70
2019-05-06T09:09:32.483Z,100470.25
2019-05-06T09:12:02.712Z,100470.11
2019-05-06T09:14:33.721Z,100466.80
2019-05-06T09:17:04.833Z,100469.02
2019-05-06T09:19:35.265Z,100471.39
2019-05-06T09:22:05.896Z,100464.11
2019-05-06T09:24:37.159Z,100457.70
2019-05-06T09:27:18.707Z,100461.73
2019-05-06T09:29:52.162Z,100460.94
2019-05-06T09:32:42.919Z,100460.91
2019-05-06T09:35:14.832Z,100462.21
2019-05-06T09:37:45.760Z,100462.23
2019-05-06T09:40:16.723Z,100469.55
2019-05-06T09:42:47.425Z,100471.73
2019-05-06T09:45:17.915Z,100472.72
2019-05-06T09:48:04.110Z,100479.06
2019-05-06T09:50:46.412Z,100474.56
2019-05-06T09:53:29.587Z,100464.44
2019-05-06T09:56:23.014Z,100459.78
2019-05-06T09:58:53.767Z,100457.36
2019-05-06T10:01:24.634Z,100447.19
2019-05-06T10:03:56.531Z,100445.86
2019-05-06T10:06:27.224Z,100442.30
2019-05-06T10:08:58.409Z,100445.77
2019-05-06T10:11:29.843Z,100444.42
2019-05-06T10:14:00.320Z,100445.70
2019-05-06T10:16:32.511Z,100434.84
2019-05-06T10:19:03.691Z,100442.09
2019-05-06T10:21:34.121Z,100429.23
2019-05-06T10:24:05.438Z,100420.73
2019-05-06T10:26:43.179Z,100422.56
2019-05-06T10:29:43.202Z,100412.98
2019-05-06T10:32:38.850Z,100424.33
2019-05-06T10:35:09.805Z,100429.11
2019-05-06T10:38:12.449Z,100430.22
2019-05-06T10:41:00.147Z,100426.56
2019-05-06T10:43:53.943Z,100435.95
2019-05-06T10:46:24.731Z,100431.14
2019-05-06T10:48:55.333Z,100438.20
2019-05-06T10:51:32.439Z,100435.95
2019-05-06T10:54:04.404Z,100427.88
2019-05-06T10:56:56.523Z,100435.73
2019-05-06T10:59:25.242Z,100428.35
2019-05-06T11:01:58.201Z,100429.70
2019-05-06T11:04:28.728Z,100433.08
2019-05-06T11:06:59.186Z,100437.47
2019-05-06T11:09:29.952Z,100434.48
2019-05-06T11:12:02.677Z,100431.28
2019-05-06T11:14:33.353Z,100421.08
2019-05-06T11:17:05.206Z,100414.88
2019-05-06T11:19:36.497Z,100414.19
2019-05-06T11:22:07.197Z,100416.65
2019-05-06T11:24:38.041Z,100410.42
2019-05-06T11:27:23.685Z,100399.03
2019-05-06T11:29:43.507Z,100386.86
2019-05-06T11:32:33.060Z,100395.04
2019-05-06T11:35:15.616Z,100394.28
2019-05-06T11:37:54.320Z,100402.30
2019-05-06T11:40:28.004Z,100399.00
2019-05-06T11:42:58.819Z,100403.06
2019-05-06T11:45:29.402Z,100402.48
2019-05-06T11:47:59.772Z,100398.98
2019-05-06T11:50:30.750Z,100393.88
2019-05-06T11:53:02.458Z,100387.41
2019-05-06T11:55:38.616Z,100392.58
2019-05-06T11:58:07.114Z,100389.16
2019-05-06T12:00:43.118Z,100394.09
2019-05-06T12:03:13.258Z,100392.02
2019-05-06T12:05:44.627Z,100390.05
2019-05-06T12:08:15.818Z,100389.02
2019-05-06T12:10:46.622Z,100392.92
2019-05-06T12:13:17.460Z,100391.63
2019-05-06T12:15:52.193Z,100387.48
2019-05-06T12:18:23.064Z,100390.23
2019-05-06T12:20:53.916Z,100386.46
2019-05-06T12:23:24.475Z,100385.95
2019-05-06T12:25:54.993Z,100381.86
2019-05-06T12:28:25.590Z,100386.05
2019-05-06T12:30:56.295Z,100379.84
2019-05-06T12:33:35.433Z,100388.66
2019-05-06T12:36:24.315Z,100377.11
2019-05-06T12:39:17.419Z,100380.84
2019-05-06T12:41:59.504Z,100380.66
2019-05-06T12:44:32.294Z,100370.03
2019-05-06T12:47:28.190Z,100375.11
2019-05-06T12:49:58.709Z,100382.77
2019-05-06T12:52:29.244Z,100383.45
2019-05-06T12:55:14.603Z,100373.52
2019-05-06T12:57:34.378Z,100387.11
2019-05-06T13:00:05.338Z,100391.55
2019-05-06T13:02:37.666Z,100380.63
2019-05-06T13:05:08.385Z,100379.10
2019-05-06T13:07:48.424Z,100397.09
2019-05-06T13:10:23.453Z,100393.89
2019-05-06T13:13:05.545Z,100382.72
2019-05-06T13:15:36.459Z,100389.51
2019-05-06T13:18:07.702Z,100381.24
2019-05-06T13:20:39.379Z,100369.66
2019-05-06T13:23:25.754Z,100375.16
2019-05-06T13:26:02.369Z,100378.55
2019-05-06T13:28:36.341Z,100375.19
2019-05-06T13:31:19.377Z,100368.90
2019-05-06T13:33:54.588Z,100368.25
2019-05-06T13:36:24.471Z,100369.91
2019-05-06T13:39:09.690Z,100369.59
2019-05-06T13:41:27.198Z,100380.33
2019-05-06T13:44:07.142Z,100374.27
2019-05-06T13:46:41.276Z,100367.12
2019-05-06T13:49:29.422Z,100372.95
2019-05-06T13:52:07.297Z,100369.73
2019-05-06T13:54:38.020Z,100363.70
2019-05-06T13:57:09.028Z,100367.67
2019-05-06T13:59:39.531Z,100367.30
2019-05-06T14:02:33.854Z,100365.41
2019-05-06T14:05:04.010Z,100357.06
2019-05-06T14:07:34.918Z,100362.73
2019-05-06T14:10:06.082Z,100368.28
2019-05-06T14:12:36.627Z,100359.36
2019-05-06T14:15:08.389Z,100359.23
2019-05-06T14:17:38.904Z,100358.63
2019-05-06T14:20:12.539Z,100363.41
2019-05-06T14:22:45.758Z,100359.30
2019-05-06T14:25:43.232Z,100359.40
2019-05-06T14:28:25.933Z,100358.39
2019-05-06T14:31:06.527Z,100354.61
2019-05-06T14:33:37.127Z,100360.53
2019-05-06T14:36:07.711Z,100364.16
2019-05-06T14:38:38.405Z,100360.70
2019-05-06T14:41:13.280Z,100358.16
2019-05-06T14:43:43.856Z,100364.19
2019-05-06T14:46:15.043Z,100362.33
2019-05-06T14:48:45.548Z,100361.19
2019-05-06T14:51:19.043Z,100365.44
2019-05-06T14:53:49.791Z,100363.98
2019-05-06T14:56:44.359Z,100359.34
2019-05-06T14:59:14.995Z,100359.63
2019-05-06T15:01:46.006Z,100365.53
2019-05-06T15:04:16.644Z,100362.37
2019-05-06T15:06:47.484Z,100364.03
2019-05-06T15:09:18.296Z,100362.69
2019-05-06T15:11:49.099Z,100362.91
2019-05-06T15:14:22.527Z,100368.98
2019-05-06T15:16:52.884Z,100371.69
2019-05-06T15:19:23.426Z,100370.09
2019-05-06T15:21:53.913Z,100372.78
2019-05-06T15:24:24.592Z,100366.02
2019-05-06T15:26:55.529Z,100368.44
2019-05-06T15:29:26.280Z,100357.10
2019-05-06T15:32:14.225Z,100366.97
2019-05-06T15:34:56.168Z,100368.67
2019-05-06T15:37:35.168Z,100370.73
2019-05-06T15:40:06.785Z,100372.45
2019-05-06T15:42:37.405Z,100376.45
2019-05-06T15:45:12.652Z,100377.66
2019-05-06T15:47:43.449Z,100377.11
2019-05-06T15:50:14.148Z,100389.95
2019-05-06T15:52:44.663Z,100385.27
2019-05-06T15:55:15.653Z,100383.96
2019-05-06T15:57:46.387Z,100384.89
2019-05-06T16:00:22.315Z,100386.24
2019-05-06T16:02:52.972Z,100385.02
2019-05-06T16:05:26.320Z,100386.36
2019-05-06T16:07:56.856Z,100385.89
2019-05-06T16:10:27.870Z,100388.97
2019-05-06T16:12:58.456Z,100389.92
2019-05-06T16:15:29.466Z,100390.41
2019-05-06T16:18:02.275Z,100379.00
2019-05-06T16:20:33.238Z,100389.03
2019-05-06T16:23:13.341Z,100382.88
2019-05-06T16:25:44.881Z,100378.83
2019-05-06T16:28:15.695Z,100374.41
2019-05-06T16:30:46.610Z,100372.40
2019-05-06T16:33:19.150Z,100373.70
2019-05-06T16:35:52.247Z,100376.28
2019-05-06T16:38:23.106Z,100369.48
2019-05-06T16:41:09.087Z,100373.36
2019-05-06T16:43:26.927Z,100367.47
2019-05-06T16:45:57.388Z,100364.89
2019-05-06T16:48:28.917Z,100364.88
2019-05-06T16:50:59.937Z,100370.23
2019-05-06T16:53:34.466Z,100366.00
2019-05-06T16:56:13.149Z,100363.98
2019-05-06T16:58:47.609Z,100372.52
2019-05-06T17:01:18.704Z,100365.89
2019-05-06T17:04:14.649Z,100357.05
2019-05-06T17:06:45.823Z,100359.06
2019-05-06T17:09:23.816Z,100365.64
2019-05-06T17:11:51.929Z,100362.45
2019-05-06T17:14:22.791Z,100358.09
2019-05-06T17:16:53.683Z,100356.57
2019-05-06T17:19:24.158Z,100363.39
2019-05-06T17:21:56.072Z,100358.89
2019-05-06T17:24:28.089Z,100367.02
2019-05-06T17:27:03.023Z,100367.62
2019-05-06T17:29:52.659Z,100371.16
2019-05-06T17:32:44.722Z,100373.03
2019-05-06T17:35:16.062Z,100370.67
2019-05-06T17:38:22.419Z,100375.63
2019-05-06T17:40:53.749Z,100373.16
2019-05-06T17:43:24.580Z,100369.16
2019-05-06T17:46:03.139Z,100369.45
2019-05-06T17:48:50.336Z,100370.41
2019-05-06T17:51:24.868Z,100383.91
2019-05-06T17:53:58.411Z,100376.58
2019-05-06T17:56:28.927Z,100367.25
2019-05-06T17:59:03.117Z,100369.27
2019-05-06T18:01:37.233Z,100366.66
2019-05-06T18:04:08.577Z,100366.42
2019-05-06T18:06:39.574Z,100368.42
2019-05-06T18:09:12.616Z,100370.07
2019-05-06T18:11:57.578Z,100376.23
2019-05-06T18:14:16.134Z,100365.41
2019-05-06T18:16:46.645Z,100367.20
2019-05-06T18:19:17.639Z,100369.88
2019-05-06T18:21:52.666Z,100371.20
2019-05-06T18:24:23.160Z,100373.05
2019-05-06T18:26:53.631Z,100372.63
2019-05-06T18:29:24.422Z,100370.58
2019-05-06T18:31:55.529Z,100369.29
2019-05-06T18:34:26.175Z,100373.56
2019-05-06T18:36:56.658Z,100372.83
2019-05-06T18:39:27.196Z,100376.78
2019-05-06T18:42:12.434Z,100373.42
2019-05-06T18:44:32.745Z,100374.34
2019-05-06T18:47:02.904Z,100378.30
2019-05-06T18:49:33.957Z,100383.55
2019-05-06T18:52:04.459Z,100382.25
2019-05-06T18:54:35.010Z,100387.56
2019-05-06T18:57:05.679Z,100391.55
2019-05-06T18:59:37.131Z,100385.95
2019-05-06T19:02:08.173Z,100393.30
2019-05-06T19:04:44.320Z,100392.00
2019-05-06T19:07:17.198Z,100399.43
2019-05-06T19:10:14.341Z,100400.77
2019-05-06T19:12:45.126Z,100409.94
2019-05-06T19:15:16.340Z,100411.19
2019-05-06T19:17:46.763Z,100405.68
2019-05-06T19:20:18.858Z,100416.97
2019-05-06T19:22:49.473Z,100422.11
2019-05-06T19:25:20.097Z,100418.66
2019-05-06T19:27:53.064Z,100424.67
2019-05-06T19:30:24.521Z,100420.41
2019-05-06T19:32:55.043Z,100423.37
2019-05-06T19:35:26.025Z,100428.98
2019-05-06T19:37:56.459Z,100426.83
2019-05-06T19:40:26.975Z,100426.49
2019-05-06T19:42:58.113Z,100426.43
2019-05-06T19:45:29.471Z,100420.80
2019-05-06T19:48:00.148Z,100423.85
2019-05-06T19:50:32.995Z,100423.79
2019-05-06T19:53:03.894Z,100423.84
2019-05-06T19:55:34.400Z,100423.76
2019-05-06T19:58:05.323Z,100421.64
2019-05-06T20:00:35.751Z,100421.26
2019-05-06T20:03:06.543Z,100424.61
2019-05-06T20:05:47.006Z,100424.22
2019-05-06T20:08:24.857Z,100424.67
2019-05-06T20:11:06.516Z,100421.64
2019-05-06T20:13:38.111Z,100426.04
2019-05-06T20:16:08.841Z,100425.60
2019-05-06T20:18:42.422Z,100426.95
2019-05-06T20:21:12.944Z,100420.47
2019-05-06T20:23:43.686Z,100426.52
2019-05-06T20:26:14.214Z,100422.63
2019-05-06T20:28:45.409Z,100422.63
2019-05-06T20:31:15.982Z,100421.38
2019-05-06T20:33:49.072Z,100424.84
2019-05-06T20:36:22.396Z,100421.39
2019-05-06T20:38:52.805Z,100428.31
2019-05-06T20:41:23.339Z,100419.82
2019-05-06T20:43:53.999Z,100429.34
2019-05-06T20:46:25.272Z,100422.39
2019-05-06T20:48:56.058Z,100431.94
2019-05-06T20:51:26.793Z,100425.67
2019-05-06T20:53:57.251Z,100428.58
2019-05-06T20:56:28.074Z,100425.80
2019-05-06T20:58:58.898Z,100425.36
2019-05-06T21:01:29.396Z,100422.23
2019-05-06T21:04:02.076Z,100428.41
2019-05-06T21:06:35.215Z,100419.57
2019-05-06T21:09:07.205Z,100426.95
2019-05-06T21:11:37.786Z,100425.72
2019-05-06T21:14:08.281Z,100423.85
2019-05-06T21:16:39.251Z,100423.92
2019-05-06T21:19:09.699Z,100421.42
2019-05-06T21:21:40.139Z,100421.87
2019-05-06T21:24:13.029Z,100415.83
2019-05-06T21:26:46.089Z,100425.41
2019-05-06T21:29:15.977Z,100424.11
2019-05-06T21:31:46.345Z,100425.41
2019-05-06T21:34:16.898Z,100424.16
2019-05-06T21:36:47.782Z,100420.67
2019-05-06T21:39:18.498Z,100424.59
2019-05-06T21:41:49.401Z,100418.53
2019-05-06T21:44:20.114Z,100422.45
2019-05-06T21:46:51.174Z,100419.86
2019-05-06T21:49:22.926Z,100422.45
2019-05-06T21:51:53.418Z,100423.34
2019-05-06T21:54:24.080Z,100423.30
2019-05-06T21:56:55.281Z,100416.83
2019-05-06T21:59:26.055Z,100412.53
2019-05-06T22:01:57.133Z,100418.16
2019-05-06T22:04:27.755Z,100413.83
2019-05-06T22:06:58.135Z,100409.09
2019-05-06T22:09:29.618Z,100417.72
2019-05-06T22:12:02.302Z,100415.97
2019-05-06T22:14:33.172Z,100418.61
2019-05-06T22:17:07.180Z,100414.67
2019-05-06T22:19:37.608Z,100415.43
2019-05-06T22:22:12.117Z,100411.09
2019-05-06T22:24:54.971Z,100412.08
2019-05-06T22:27:22.249Z,100400.38
2019-05-06T22:29:52.723Z,100407.88
2019-05-06T22:32:23.338Z,100400.06
2019-05-06T22:34:54.054Z,100403.50
2019-05-06T22:37:24.735Z,100407.35
2019-05-06T22:39:55.514Z,100407.84
2019-05-06T22:42:26.197Z,100407.42
2019-05-06T22:44:56.720Z,100401.80
2019-05-06T22:47:27.135Z,100399.62
2019-05-06T22:49:57.607Z,100403.50
2019-05-06T22:52:28.379Z,100400.87
2019-05-06T22:55:03.795Z,100407.34
2019-05-06T22:57:33.068Z,100403.50
2019-05-06T23:00:03.977Z,100401.77
2019-05-06T23:02:50.391Z,100406.13
2019-05-06T23:05:23.958Z,100405.72
2019-05-06T23:07:54.871Z,100405.28
2019-05-06T23:10:25.270Z,100400.47
2019-05-06T23:12:56.406Z,100400.95
2019-05-06T23:15:26.903Z,100399.17
2019-05-06T23:17:57.461Z,100397.06
2019-05-06T23:20:28.267Z,100397.95
2019-05-06T23:22:58.980Z,100400.54
2019-05-06T23:25:29.695Z,100395.36
2019-05-06T23:28:02.644Z,100395.39
2019-05-06T23:30:33.437Z,100395.80
2019-05-06T23:33:04.044Z,100390.17
2019-05-06T23:35:34.828Z,100388.03
2019-05-06T23:38:58.497Z,100390.17
2019-05-06T23:42:22.891Z,100391.47
2019-05-06T23:45:46.611Z,100386.28
2019-05-06T23:49:10.211Z,100384.55
2019-05-06T23:52:33.684Z,100379.36
2019-05-06T23:55:57.412Z,100386.28
2019-05-06T23:58:25.635Z,100385.36
